Time;durP1;ratioP1;P1;durP2;ratioP2;P2;SDS_P1;SDS_P2;PMS_P1;PMS_P2;Temp;Humidity;BMP_temperature;BMP_pressure;BME280_temperature;BME280_humidity;BME280_pressure;Samples;Min_cycle;Max_cycle;Signal;HPM_P1;HPM_P2
2021/09/27 00:01:02;;;;;;;5.68;2.33;;;17.00;87.00;;;;;;5025573;28;20389;-63
2021/09/27 00:03:30;;;;;;;5.68;3.17;;;17.00;87.00;;;;;;5027386;28;20071;-63
2021/09/27 00:05:57;;;;;;;5.25;2.67;;;17.00;86.90;;;;;;5026484;28;20439;-62
2021/09/27 00:08:24;;;;;;;10.63;3.15;;;17.00;87.00;;;;;;5027055;28;20076;-62
2021/09/27 00:11:02;;;;;;;8.07;3.20;;;17.00;87.10;;;;;;5029744;28;20197;-62
2021/09/27 00:13:32;;;;;;;13.75;2.90;;;17.10;87.70;;;;;;5031082;28;20081;-63
2021/09/27 00:15:59;;;;;;;7.45;3.08;;;17.10;87.20;;;;;;5030811;28;20057;-63
2021/09/27 00:18:27;;;;;;;5.65;2.70;;;17.10;87.20;;;;;;5031138;28;20083;-62
2021/09/27 00:20:55;;;;;;;9.52;2.90;;;17.10;87.20;;;;;;5031141;28;20061;-62
2021/09/27 00:23:22;;;;;;;7.68;2.88;;;17.10;87.20;;;;;;5029782;28;20126;-63
2021/09/27 00:25:49;;;;;;;9.65;3.03;;;17.10;87.10;;;;;;5032031;28;20107;-63
2021/09/27 00:28:16;;;;;;;8.90;2.58;;;17.10;87.20;;;;;;5031620;28;20045;-64
2021/09/27 00:30:43;;;;;;;6.72;3.03;;;17.10;87.20;;;;;;5031138;28;20481;-63
2021/09/27 00:33:10;;;;;;;9.90;3.55;;;17.10;87.20;;;;;;5032216;28;20080;-63
2021/09/27 00:35:37;;;;;;;8.65;3.05;;;17.10;87.20;;;;;;5032113;28;20049;-63
2021/09/27 00:38:05;;;;;;;5.63;3.00;;;17.10;87.50;;;;;;5032433;28;20045;-63
2021/09/27 00:40:39;;;;;;;9.55;2.80;;;17.10;87.30;;;;;;5032023;28;20107;-62
2021/09/27 00:43:06;;;;;;;9.27;3.05;;;17.10;88.30;;;;;;5031407;28;20046;-62
2021/09/27 00:45:39;;;;;;;11.90;4.55;;;17.10;88.00;;;;;;4683026;28;10000912;-62
2021/09/27 00:48:06;;;;;;;7.22;2.92;;;17.20;88.00;;;;;;5031707;28;20252;-63
2021/09/27 00:50:35;;;;;;;6.15;2.65;;;17.20;87.50;;;;;;5030481;28;20178;-63
2021/09/27 00:53:03;;;;;;;5.65;2.63;;;17.20;87.80;;;;;;5030196;28;20045;-63
2021/09/27 00:55:30;;;;;;;5.78;2.30;;;17.20;87.50;;;;;;5029639;28;20112;-63
2021/09/27 00:57:56;;;;;;;4.43;2.97;;;17.20;87.50;;;;;;5030246;28;20439;-62
2021/09/27 01:00:24;;;;;;;7.25;2.80;;;17.20;87.50;;;;;;5029264;28;20049;-62
2021/09/27 01:02:51;;;;;;;8.52;2.60;;;17.20;87.60;;;;;;5028369;28;20046;-63
2021/09/27 01:05:19;;;;;;;5.88;2.17;;;17.30;87.60;;;;;;5028646;28;20469;-64
2021/09/27 01:07:52;;;;;;;6.82;2.58;;;17.20;87.50;;;;;;5029800;28;20069;-64
2021/09/27 01:10:28;;;;;;;10.55;2.53;;;17.30;87.80;;;;;;5028847;28;20054;-63
2021/09/27 01:13:03;;;;;;;9.15;3.67;;;17.30;88.00;;;;;;5028391;28;20489;-63
2021/09/27 01:16:07;;;;;;;10.48;3.05;;;17.40;87.60;;;;;;5012327;28;20056;-63
2021/09/27 01:19:11;;;;;;;3.35;2.13;;;17.40;88.20;;;;;;5024965;28;20049;-64
2021/09/27 01:21:53;;;;;;;7.30;2.58;;;17.40;88.10;;;;;;5021745;28;20053;-64
2021/09/27 01:24:42;;;;;;;7.85;2.72;;;17.40;87.20;;;;;;5028890;28;20049;-62
2021/09/27 01:27:39;;;;;;;7.00;2.28;;;17.40;87.40;;;;;;5028088;28;20053;-64
2021/09/27 01:30:27;;;;;;;9.48;3.38;;;17.40;87.40;;;;;;5019440;28;20038;-63
2021/09/27 01:33:05;;;;;;;8.00;2.47;;;17.40;87.50;;;;;;5024743;28;20308;-63
2021/09/27 01:35:34;;;;;;;11.15;2.35;;;17.50;87.30;;;;;;5027678;28;20045;-62
2021/09/27 01:38:35;;;;;;;8.68;2.20;;;17.50;87.20;;;;;;5028117;28;20107;-62
2021/09/27 01:41:23;;;;;;;9.05;2.35;;;17.40;88.00;;;;;;5027451;28;20504;-62
2021/09/27 01:44:21;;;;;;;4.75;2.10;;;17.50;87.90;;;;;;5021893;28;20046;-63
2021/09/27 01:46:53;;;;;;;12.70;2.22;;;17.50;87.50;;;;;;5005424;28;20076;-62
2021/09/27 01:49:35;;;;;;;5.55;2.90;;;17.50;87.30;;;;;;5027587;28;20053;-63
2021/09/27 01:52:04;;;;;;;4.95;2.70;;;17.50;87.80;;;;;;5010829;28;20091;-62
2021/09/27 01:55:10;;;;;;;8.20;2.75;;;17.50;87.10;;;;;;5027139;28;20060;-63
2021/09/27 01:58:06;;;;;;;10.52;2.58;;;17.50;88.30;;;;;;4960909;28;20095;-63
2021/09/27 02:00:48;;;;;;;8.80;2.85;;;17.50;88.20;;;;;;5026644;28;20072;-63
2021/09/27 02:03:24;;;;;;;16.30;3.70;;;17.50;87.80;;;;;;5027457;28;20119;-63
2021/09/27 02:06:09;;;;;;;6.60;2.40;;;17.50;87.10;;;;;;5028320;28;20045;-63
2021/09/27 02:09:07;;;;;;;12.25;2.53;;;17.50;88.00;;;;;;5028741;28;20053;-63
2021/09/27 02:11:36;;;;;;;5.00;2.17;;;17.50;88.10;;;;;;5025215;28;20049;-63
2021/09/27 02:14:06;;;;;;;6.25;2.08;;;17.50;87.30;;;;;;5027181;28;20049;-63
2021/09/27 02:16:56;;;;;;;10.40;3.03;;;17.60;87.20;;;;;;5026827;28;20046;-63
2021/09/27 02:20:00;;;;;;;5.50;2.05;;;17.60;88.50;;;;;;5026943;28;20049;-63
2021/09/27 02:22:32;;;;;;;8.18;2.17;;;17.50;88.00;;;;;;5027531;28;20046;-63
2021/09/27 02:25:09;;;;;;;8.65;3.88;;;17.50;87.20;;;;;;5019584;28;20064;-62
2021/09/27 02:27:36;;;;;;;10.25;2.58;;;17.60;87.70;;;;;;5028532;28;20180;-63
2021/09/27 02:30:04;;;;;;;7.88;2.35;;;17.50;87.10;;;;;;5026948;28;20041;-63
2021/09/27 02:32:56;;;;;;;8.88;2.65;;;17.60;87.30;;;;;;5023849;28;20045;-62
2021/09/27 02:35:29;;;;;;;9.85;2.17;;;17.60;87.30;;;;;;5011886;28;20045;-62
2021/09/27 02:38:13;;;;;;;9.70;2.35;;;17.60;87.60;;;;;;5026551;28;20111;-63
2021/09/27 02:41:00;;;;;;;6.40;1.85;;;17.60;87.60;;;;;;5025992;28;20048;-64
2021/09/27 02:43:27;;;;;;;5.55;1.90;;;17.70;87.60;;;;;;5026239;28;20111;-63
2021/09/27 02:45:56;;;;;;;8.18;2.40;;;17.70;87.10;;;;;;5026143;28;20041;-63
2021/09/27 02:48:41;;;;;;;12.73;2.38;;;17.70;87.20;;;;;;5027675;28;20041;-63
2021/09/27 02:51:09;;;;;;;8.90;3.25;;;17.70;87.20;;;;;;5026331;28;20471;-64
2021/09/27 02:53:36;;;;;;;6.05;2.40;;;17.70;87.00;;;;;;5026154;28;20049;-63
2021/09/27 02:56:40;;;;;;;5.10;1.75;;;17.80;87.00;;;;;;5027437;28;20071;-63
2021/09/27 02:59:24;;;;;;;9.00;2.08;;;17.70;87.50;;;;;;5027664;28;20061;-62
2021/09/27 03:02:05;;;;;;;6.82;1.70;;;17.80;87.20;;;;;;5025891;28;20080;-62
2021/09/27 03:05:04;;;;;;;7.55;2.28;;;17.80;87.20;;;;;;5025242;28;20053;-62
2021/09/27 03:07:39;;;;;;;9.63;1.80;;;17.70;87.30;;;;;;5007817;28;20042;-61
2021/09/27 03:10:19;;;;;;;7.00;2.30;;;17.80;87.50;;;;;;5032867;28;20472;-63
2021/09/27 03:13:11;;;;;;;6.50;1.55;;;17.80;87.80;;;;;;5025796;28;20084;-63
2021/09/27 03:15:55;;;;;;;6.32;1.73;;;17.70;87.90;;;;;;5004347;28;20436;-63
2021/09/27 03:19:00;;;;;;;4.72;1.63;;;17.60;89.60;;;;;;5025852;28;20085;-62
2021/09/27 03:21:27;;;;;;;8.82;2.53;;;17.50;89.80;;;;;;5026457;28;20803;-62
2021/09/27 03:24:12;;;;;;;13.40;2.42;;;17.50;87.90;;;;;;5027046;28;20562;-63
2021/09/27 03:26:53;;;;;;;10.65;2.35;;;17.50;90.00;;;;;;5026464;28;20484;-62
2021/09/27 03:29:57;;;;;;;8.63;1.92;;;17.50;88.60;;;;;;5025731;28;20053;-63
2021/09/27 03:32:51;;;;;;;;;;;17.50;89.60;;;;;;5026736;28;20157;-64
2021/09/27 03:35:20;;;;;;;6.70;1.58;;;17.50;90.00;;;;;;5024202;28;19960;-63
2021/09/27 03:37:52;;;;;;;5.15;1.50;;;17.50;88.20;;;;;;5025329;28;20073;-64
2021/09/27 03:40:32;;;;;;;4.68;1.60;;;17.50;88.40;;;;;;5024892;28;20068;-63
2021/09/27 03:43:04;;;;;;;8.35;2.00;;;17.50;89.40;;;;;;5026588;28;20072;-63
2021/09/27 03:45:56;;;;;;;7.45;2.22;;;17.50;88.80;;;;;;5024179;28;20144;-62
2021/09/27 03:48:38;;;;;;;12.57;1.90;;;17.60;89.30;;;;;;5021584;28;20469;-62
2021/09/27 03:51:23;;;;;;;13.10;2.08;;;17.50;89.60;;;;;;5024483;28;20045;-63
2021/09/27 03:53:59;;;;;;;6.65;2.00;;;17.60;89.20;;;;;;5010729;28;20046;-64
2021/09/27 03:56:40;;;;;;;11.73;3.20;;;17.60;89.20;;;;;;5003791;28;20617;-62
2021/09/27 03:59:15;;;;;;;9.77;2.30;;;17.60;89.90;;;;;;5025165;28;20739;-62
2021/09/27 04:01:50;;;;;;;8.02;1.98;;;17.60;88.80;;;;;;5026389;28;20085;-63
2021/09/27 04:04:21;;;;;;;6.97;1.55;;;17.60;88.80;;;;;;5022831;28;20046;-64
2021/09/27 04:06:58;;;;;;;8.23;1.80;;;17.60;89.70;;;;;;5020112;28;20049;-62
2021/09/27 04:09:49;;;;;;;11.13;2.22;;;17.50;90.10;;;;;;5026414;28;20053;-63
2021/09/27 04:12:31;;;;;;;12.55;2.10;;;17.50;90.20;;;;;;5022696;28;20076;-62
2021/09/27 04:15:14;;;;;;;16.60;2.97;;;17.50;89.90;;;;;;4992280;28;20072;-63
2021/09/27 04:17:50;;;;;;;6.75;2.40;;;17.50;89.70;;;;;;5003133;28;20508;-63
2021/09/27 04:20:29;;;;;;;12.00;2.55;;;17.50;89.50;;;;;;5023888;28;20077;-63
2021/09/27 04:23:27;;;;;;;7.05;1.90;;;17.60;89.10;;;;;;5021051;28;20042;-63
2021/09/27 04:26:05;;;;;;;14.38;3.55;;;17.60;89.30;;;;;;5025046;28;20480;-63
2021/09/27 04:29:01;;;;;;;13.30;2.25;;;17.60;89.00;;;;;;5024273;28;20041;-62
2021/09/27 04:31:40;;;;;;;12.90;1.95;;;17.60;89.30;;;;;;5023415;28;20046;-63
2021/09/27 04:34:07;;;;;;;10.35;3.40;;;17.60;88.30;;;;;;5024895;28;20073;-62
2021/09/27 04:36:36;;;;;;;7.40;1.98;;;17.50;88.20;;;;;;5025822;28;20138;-63
2021/09/27 04:39:08;;;;;;;8.77;1.73;;;17.60;88.40;;;;;;5017879;28;20045;-63
2021/09/27 04:41:50;;;;;;;9.30;1.95;;;17.60;88.20;;;;;;5021459;28;20198;-63
2021/09/27 04:45:01;;;;;;;15.85;3.67;;;17.60;88.30;;;;;;5020211;28;20046;-63
2021/09/27 04:47:43;;;;;;;4.53;1.38;;;17.60;88.50;;;;;;5011659;28;20231;-62
2021/09/27 04:50:31;;;;;;;11.68;1.90;;;17.60;88.30;;;;;;5025978;28;20096;-63
2021/09/27 04:53:28;;;;;;;10.48;2.13;;;17.60;88.40;;;;;;5025790;28;20462;-63
2021/09/27 04:56:10;;;;;;;8.70;1.73;;;17.60;88.40;;;;;;5026638;28;20500;-62
2021/09/27 04:58:58;;;;;;;10.77;1.80;;;17.60;87.90;;;;;;5024078;28;20169;-63
2021/09/27 05:01:34;;;;;;;9.90;2.05;;;17.60;88.00;;;;;;5031137;28;20057;-64
2021/09/27 05:04:28;;;;;;;10.73;3.10;;;17.50;88.30;;;;;;5030671;28;20248;-63
2021/09/27 05:07:09;;;;;;;7.40;1.40;;;17.60;88.40;;;;;;5028237;28;20136;-63
2021/09/27 05:09:57;;;;;;;7.78;1.40;;;17.60;88.40;;;;;;5029765;28;20100;-63
2021/09/27 05:12:31;;;;;;;4.70;1.42;;;17.50;88.50;;;;;;5028891;28;20084;-63
2021/09/27 05:15:00;;;;;;;9.38;1.73;;;17.60;88.20;;;;;;5028580;28;20136;-63
2021/09/27 05:17:57;;;;;;;14.55;2.00;;;17.50;88.00;;;;;;5028807;28;20053;-63
2021/09/27 05:20:46;;;;;;;6.40;1.90;;;17.60;88.60;;;;;;5029661;28;20053;-64
2021/09/27 05:23:22;;;;;;;7.22;1.60;;;17.60;88.40;;;;;;5026572;28;20508;-64
2021/09/27 05:26:07;;;;;;;9.38;1.92;;;17.60;87.80;;;;;;5016668;28;20048;-63
2021/09/27 05:28:48;;;;;;;10.55;2.28;;;17.60;87.80;;;;;;5029761;28;20496;-63
2021/09/27 05:31:34;;;;;;;9.90;2.25;;;17.60;88.80;;;;;;5028658;28;20080;-61
2021/09/27 05:34:31;;;;;;;16.17;2.00;;;17.60;88.10;;;;;;5029921;28;20041;-63
2021/09/27 05:37:07;;;;;;;11.13;1.80;;;17.60;88.60;;;;;;5023492;28;20087;-64
2021/09/27 05:39:52;;;;;;;12.63;2.63;;;17.60;88.60;;;;;;5027992;28;20081;-62
2021/09/27 05:42:48;;;;;;;7.25;2.75;;;17.50;89.70;;;;;;5027878;28;20403;-65
2021/09/27 05:45:33;;;;;;;14.55;1.92;;;17.40;90.30;;;;;;5026367;28;20053;-64
2021/09/27 05:48:08;;;;;;;9.65;1.95;;;17.30;91.00;;;;;;5027697;28;20052;-64
2021/09/27 05:50:40;;;;;;;18.83;2.28;;;17.20;90.70;;;;;;5028631;28;20408;-64
2021/09/27 05:53:22;;;;;;;10.38;3.75;;;17.20;90.20;;;;;;5027883;28;20065;-64
2021/09/27 05:56:07;;;;;;;12.32;2.10;;;17.10;91.40;;;;;;5012723;28;20056;-64
2021/09/27 05:58:43;;;;;;;13.85;2.53;;;17.10;91.70;;;;;;5028476;28;20045;-64
2021/09/27 06:01:27;;;;;;;8.88;2.10;;;17.10;91.60;;;;;;5031477;28;20046;-63
2021/09/27 06:04:09;;;;;;;10.23;1.90;;;17.10;91.30;;;;;;5027342;28;20041;-63
2021/09/27 06:06:39;;;;;;;13.57;3.17;;;17.00;91.50;;;;;;5026748;28;20041;-63
2021/09/27 06:09:15;;;;;;;11.25;2.58;;;17.00;91.10;;;;;;5027880;28;20049;-64
2021/09/27 06:12:03;;;;;;;20.75;4.57;;;17.00;91.90;;;;;;5026545;28;20131;-64
2021/09/27 06:14:30;;;;;;;16.38;3.22;;;17.00;92.80;;;;;;5026116;28;20053;-64
2021/09/27 06:17:05;;;;;;;15.73;3.47;;;16.90;91.60;;;;;;5024837;28;20057;-63
2021/09/27 06:19:49;;;;;;;8.68;2.72;;;16.90;92.00;;;;;;5010976;28;20449;-63
2021/09/27 06:22:53;;;;;;;12.00;2.30;;;16.90;92.30;;;;;;5025314;28;20096;-64
2021/09/27 06:25:19;;;;;;;8.77;1.92;;;16.90;93.30;;;;;;5024683;28;20046;-63
2021/09/27 06:28:27;;;;;;;7.50;1.98;;;16.90;91.90;;;;;;5027775;28;20436;-65
2021/09/27 06:31:00;;;;;;;8.93;2.08;;;16.80;93.40;;;;;;5030062;28;20507;-64
2021/09/27 06:33:32;;;;;;;8.18;2.03;;;16.80;92.20;;;;;;5008701;28;20049;-62
2021/09/27 06:36:00;;;;;;;18.10;3.10;;;16.80;92.20;;;;;;5025828;28;20132;-62
2021/09/27 06:38:29;;;;;;;10.55;2.22;;;16.70;92.80;;;;;;4990585;28;20205;-64
2021/09/27 06:40:57;;;;;;;14.55;3.28;;;16.70;92.60;;;;;;5030305;28;20072;-65
2021/09/27 06:43:25;;;;;;;13.93;3.58;;;16.60;92.60;;;;;;5026011;28;20061;-61
2021/09/27 06:45:53;;;;;;;8.48;1.98;;;16.60;92.80;;;;;;5025290;28;20052;-62
2021/09/27 06:48:20;;;;;;;7.05;1.52;;;16.60;92.90;;;;;;5026684;28;20497;-60
2021/09/27 06:50:47;;;;;;;7.45;2.10;;;16.60;93.00;;;;;;5025802;28;20049;-64
2021/09/27 06:53:14;;;;;;;5.82;1.20;;;16.60;93.00;;;;;;5023905;28;20093;-63
2021/09/27 06:55:41;;;;;;;7.50;1.48;;;16.60;93.20;;;;;;5024274;28;20107;-63
2021/09/27 06:58:08;;;;;;;8.85;2.13;;;16.60;93.10;;;;;;5023527;28;20046;-62
2021/09/27 07:00:35;;;;;;;6.00;1.40;;;16.60;93.40;;;;;;5022679;28;20500;-63
2021/09/27 07:03:02;;;;;;;2.97;0.98;;;16.60;93.10;;;;;;5024331;28;20449;-64
2021/09/27 07:05:29;;;;;;;7.57;1.73;;;16.60;93.50;;;;;;5022321;28;20049;-63
2021/09/27 07:07:56;;;;;;;2.63;1.23;;;16.60;93.30;;;;;;5023278;28;20406;-61
2021/09/27 07:10:24;;;;;;;4.60;1.10;;;16.60;93.30;;;;;;5021906;28;20077;-61
2021/09/27 07:12:51;;;;;;;4.07;1.20;;;16.60;93.60;;;;;;5023357;28;20053;-61
2021/09/27 07:15:18;;;;;;;3.30;0.73;;;16.60;93.50;;;;;;5023103;28;20191;-63
2021/09/27 07:17:45;;;;;;;6.57;1.30;;;16.60;93.50;;;;;;5023789;28;20049;-62
2021/09/27 07:20:18;;;;;;;3.35;1.25;;;16.60;93.70;;;;;;5022395;28;20143;-62
2021/09/27 07:22:48;;;;;;;12.85;2.10;;;16.70;93.90;;;;;;5023635;28;20053;-62
2021/09/27 07:25:15;;;;;;;5.10;1.95;;;16.70;93.60;;;;;;5023188;28;20067;-62
2021/09/27 07:27:42;;;;;;;14.70;2.50;;;16.70;93.70;;;;;;5023348;28;20140;-63
2021/09/27 07:30:09;;;;;;;5.57;1.75;;;16.70;93.80;;;;;;5022518;28;20086;-62
2021/09/27 07:32:36;;;;;;;8.18;1.90;;;16.70;93.60;;;;;;5023879;28;20053;-62
2021/09/27 07:35:04;;;;;;;9.48;1.52;;;16.70;93.60;;;;;;5025116;28;20128;-61
2021/09/27 07:37:31;;;;;;;6.60;1.58;;;16.70;93.70;;;;;;5025670;28;20171;-62
2021/09/27 07:39:57;;;;;;;3.13;1.42;;;16.70;93.60;;;;;;5025896;28;20063;-63
2021/09/27 07:42:27;;;;;;;5.85;1.77;;;16.70;93.70;;;;;;5024053;28;20096;-62
2021/09/27 07:44:54;;;;;;;10.75;2.90;;;16.70;94.10;;;;;;5025547;28;20051;-67
2021/09/27 07:47:20;;;;;;;5.55;1.35;;;16.60;94.00;;;;;;5025240;28;20519;-62
2021/09/27 07:49:47;;;;;;;8.38;2.42;;;16.60;94.10;;;;;;5027017;28;20124;-62
2021/09/27 07:52:14;;;;;;;4.05;1.33;;;16.60;93.90;;;;;;5024648;28;20089;-60
2021/09/27 07:54:40;;;;;;;6.47;1.25;;;16.60;93.90;;;;;;5025497;28;20176;-61
2021/09/27 07:57:07;;;;;;;4.93;1.45;;;16.70;94.00;;;;;;5018785;28;20084;-63
2021/09/27 07:59:34;;;;;;;3.88;1.50;;;16.70;93.90;;;;;;5020844;28;20125;-63
2021/09/27 08:02:01;;;;;;;3.47;1.08;;;16.70;94.00;;;;;;5024142;28;20072;-63
2021/09/27 08:04:28;;;;;;;4.07;0.90;;;16.70;94.00;;;;;;5025424;28;20049;-63
2021/09/27 08:06:54;;;;;;;5.28;1.17;;;16.70;94.00;;;;;;5025808;28;20512;-63
2021/09/27 08:09:21;;;;;;;2.70;0.95;;;16.70;93.90;;;;;;5022199;28;20046;-63
2021/09/27 08:11:48;;;;;;;5.82;1.38;;;16.70;94.10;;;;;;5023597;28;20103;-62
2021/09/27 08:14:15;;;;;;;4.38;1.42;;;16.70;93.80;;;;;;5022043;28;20172;-63
2021/09/27 08:16:43;;;;;;;5.68;1.85;;;16.80;94.00;;;;;;5022369;28;20045;-63
2021/09/27 08:19:09;;;;;;;8.35;1.90;;;16.80;93.70;;;;;;5022550;28;20049;-62
2021/09/27 08:21:36;;;;;;;9.73;2.08;;;16.80;93.50;;;;;;5022324;28;20133;-62
2021/09/27 08:24:03;;;;;;;7.32;1.70;;;16.90;93.50;;;;;;5023355;28;20089;-63
2021/09/27 08:26:30;;;;;;;12.57;2.53;;;16.90;93.50;;;;;;5023790;28;20125;-61
2021/09/27 08:28:57;;;;;;;4.07;1.08;;;16.50;92.00;;;;;;5023336;28;20077;-63
2021/09/27 08:31:23;;;;;;;5.95;0.70;;;15.60;91.20;;;;;;5026918;28;20116;-62
2021/09/27 08:33:52;;;;;;;4.90;0.70;;;15.10;92.60;;;;;;5030051;28;20052;-62
2021/09/27 08:36:22;;;;;;;6.90;0.93;;;14.80;92.60;;;;;;5028818;28;21105;-62
2021/09/27 08:38:48;;;;;;;2.47;0.50;;;14.60;93.20;;;;;;5028685;28;20124;-62
2021/09/27 08:41:42;;;;;;;1.98;0.73;;;14.50;93.00;;;;;;5028870;28;20089;-62
2021/09/27 08:44:46;;;;;;;3.20;0.73;;;14.40;91.90;;;;;;5017771;28;20080;-62
2021/09/27 08:47:40;;;;;;;1.95;0.60;;;14.30;92.50;;;;;;5027721;28;20045;-62
2021/09/27 08:50:31;;;;;;;3.80;0.95;;;14.20;92.60;;;;;;5010476;28;20096;-63
2021/09/27 08:53:02;;;;;;;1.48;0.85;;;14.20;92.50;;;;;;5027663;28;20049;-63
2021/09/27 08:55:30;;;;;;;4.88;0.57;;;14.10;91.70;;;;;;5011521;28;20088;-64
2021/09/27 08:58:32;;;;;;;0.80;0.60;;;14.10;92.00;;;;;;5027085;28;20068;-63
2021/09/27 09:01:02;;;;;;;1.70;0.70;;;14.10;92.30;;;;;;5004181;28;20460;-63
2021/09/27 09:03:31;;;;;;;2.20;0.70;;;14.10;92.10;;;;;;5011298;28;20316;-63
2021/09/27 09:06:21;;;;;;;1.75;0.60;;;14.20;91.70;;;;;;5027872;28;20077;-63
2021/09/27 09:09:17;;;;;;;0.73;0.60;;;14.20;92.10;;;;;;5007585;28;20041;-63
2021/09/27 09:11:56;;;;;;;0.93;0.40;;;14.10;90.90;;;;;;5027220;28;20168;-63
2021/09/27 09:14:45;;;;;;;4.78;0.50;;;14.00;90.80;;;;;;5026742;28;20091;-63
2021/09/27 09:17:18;;;;;;;1.17;0.70;;;14.10;88.80;;;;;;5021965;28;20401;-63
2021/09/27 09:19:45;;;;;;;0.53;0.40;;;14.20;89.90;;;;;;5029840;28;20439;-63
2021/09/27 09:22:21;;;;;;;0.47;0.40;;;14.40;89.90;;;;;;5012044;28;20124;-63
2021/09/27 09:24:48;;;;;;;3.50;0.52;;;14.40;89.60;;;;;;5011214;28;20133;-64
2021/09/27 09:27:15;;;;;;;1.48;0.60;;;14.30;89.80;;;;;;5010936;28;20049;-65
2021/09/27 09:29:43;;;;;;;5.20;2.63;;;14.30;88.80;;;;;;5028266;28;20349;-64
2021/09/27 09:32:14;;;;;;;0.63;0.50;;;14.30;87.60;;;;;;4680568;28;10000133;-63
2021/09/27 09:34:41;;;;;;;0.43;0.43;;;14.30;85.60;;;;;;5030176;28;20055;-63
2021/09/27 09:37:14;;;;;;;1.27;0.50;;;14.30;84.20;;;;;;5026790;28;20057;-62
2021/09/27 09:39:52;;;;;;;1.25;0.50;;;14.30;86.20;;;;;;5028593;28;20076;-60
2021/09/27 09:42:19;;;;;;;0.50;0.50;;;14.50;86.00;;;;;;5025904;28;20053;-62
2021/09/27 09:44:48;;;;;;;0.43;0.32;;;14.50;83.60;;;;;;5031255;28;20052;-62
2021/09/27 09:47:18;;;;;;;0.98;0.40;;;14.50;81.40;;;;;;5028044;28;20042;-61
2021/09/27 09:49:54;;;;;;;2.30;0.40;;;14.60;84.70;;;;;;5028317;28;20071;-61
2021/09/27 09:52:27;;;;;;;1.80;0.57;;;14.80;83.80;;;;;;5028881;28;20042;-61
2021/09/27 09:54:55;;;;;;;1.23;0.70;;;14.80;81.30;;;;;;5020234;28;20164;-61
2021/09/27 09:57:29;;;;;;;1.30;0.57;;;14.70;81.40;;;;;;5027297;28;20132;-62
2021/09/27 10:00:14;;;;;;;1.63;0.47;;;14.70;82.80;;;;;;5026186;28;20181;-62
2021/09/27 10:02:42;;;;;;;3.67;0.52;;;14.70;81.20;;;;;;5026420;28;20113;-61
2021/09/27 10:05:15;;;;;;;0.45;0.45;;;14.80;81.80;;;;;;5026056;28;20037;-61
2021/09/27 10:07:46;;;;;;;0.88;0.57;;;14.80;80.30;;;;;;5026220;28;20081;-61
2021/09/27 10:10:28;;;;;;;2.00;0.93;;;14.90;81.40;;;;;;5002190;28;20037;-61
2021/09/27 10:12:55;;;;;;;2.53;0.40;;;15.00;79.10;;;;;;5029885;28;20058;-61
2021/09/27 10:15:40;;;;;;;1.83;0.60;;;15.00;79.20;;;;;;5027729;28;20045;-61
2021/09/27 10:18:13;;;;;;;0.43;0.43;;;14.90;75.90;;;;;;5025748;28;20182;-61
2021/09/27 10:20:42;;;;;;;0.85;0.52;;;15.00;76.50;;;;;;5026258;28;20076;-61
2021/09/27 10:23:11;;;;;;;2.28;0.50;;;15.10;78.80;;;;;;5026765;28;20073;-61
2021/09/27 10:25:46;;;;;;;0.85;0.60;;;15.10;75.30;;;;;;5030540;28;20060;-61
2021/09/27 10:28:16;;;;;;;1.38;1.20;;;15.10;75.20;;;;;;5024603;28;20107;-61
2021/09/27 10:30:44;;;;;;;0.47;0.40;;;15.10;77.40;;;;;;5032514;28;20501;-62
2021/09/27 10:33:17;;;;;;;1.90;0.88;;;15.20;76.50;;;;;;5025648;28;20494;-61
2021/09/27 10:36:08;;;;;;;;;;;15.30;74.30;;;;;;5028866;28;20050;-61
2021/09/27 10:38:53;;;;;;;0.75;0.50;;;15.40;73.30;;;;;;5022950;28;19975;-62
2021/09/27 10:41:21;;;;;;;1.88;0.70;;;15.40;71.80;;;;;;5026530;28;20589;-61
2021/09/27 10:43:49;;;;;;;0.50;0.50;;;15.40;74.90;;;;;;5026548;28;20056;-62
2021/09/27 10:46:17;;;;;;;2.17;0.60;;;15.30;70.80;;;;;;5031336;28;20049;-62
2021/09/27 10:48:48;;;;;;;1.10;0.85;;;15.50;72.10;;;;;;5009438;28;20073;-62
2021/09/27 10:51:14;;;;;;;0.98;0.50;;;15.50;70.70;;;;;;5026634;28;20477;-61
2021/09/27 10:53:52;;;;;;;1.60;0.60;;;15.50;68.90;;;;;;5025687;28;20354;-61
2021/09/27 10:56:39;;;;;;;0.50;0.40;;;15.70;70.00;;;;;;5025849;28;20081;-62
2021/09/27 10:59:09;;;;;;;5.43;0.65;;;15.70;68.40;;;;;;5025983;28;20088;-61
2021/09/27 11:01:52;;;;;;;8.65;0.70;;;15.80;66.40;;;;;;5009611;28;20457;-62
2021/09/27 11:04:24;;;;;;;0.98;0.63;;;16.00;68.00;;;;;;5025668;28;20091;-61
2021/09/27 11:06:52;;;;;;;2.35;0.60;;;16.10;69.60;;;;;;5024951;28;20100;-62
2021/09/27 11:09:25;;;;;;;1.13;0.43;;;16.00;66.60;;;;;;5025632;28;20562;-62
2021/09/27 11:12:03;;;;;;;0.75;0.50;;;16.00;66.20;;;;;;5026972;28;21100;-62
2021/09/27 11:14:36;;;;;;;0.68;0.40;;;16.00;63.10;;;;;;5025717;28;20131;-61
2021/09/27 11:17:05;;;;;;;3.05;0.57;;;16.00;66.10;;;;;;5026755;28;20193;-62
2021/09/27 11:19:32;;;;;;;1.33;0.60;;;16.10;67.00;;;;;;5026759;28;20053;-62
2021/09/27 11:22:15;;;;;;;3.95;0.60;;;15.90;67.90;;;;;;5030607;28;20153;-61
2021/09/27 11:24:42;;;;;;;1.98;0.70;;;15.90;66.50;;;;;;5024529;28;20077;-62
2021/09/27 11:27:17;;;;;;;9.52;0.77;;;16.00;68.40;;;;;;5026732;28;20045;-61
2021/09/27 11:29:58;;;;;;;2.63;0.50;;;16.10;64.90;;;;;;5026163;28;20049;-62
2021/09/27 11:32:46;;;;;;;8.05;0.70;;;16.20;63.60;;;;;;5009139;28;20078;-62
2021/09/27 11:35:16;;;;;;;6.40;0.73;;;16.30;63.80;;;;;;5021812;28;20037;-62
2021/09/27 11:37:42;;;;;;;6.95;0.70;;;16.40;65.10;;;;;;5026120;28;20160;-62
2021/09/27 11:40:16;;;;;;;1.60;0.50;;;16.40;64.50;;;;;;5026715;28;20053;-62
2021/09/27 11:42:42;;;;;;;1.58;0.60;;;16.40;61.60;;;;;;5026568;28;20085;-62
2021/09/27 11:45:29;;;;;;;5.13;1.05;;;16.40;62.10;;;;;;5026117;28;20045;-62
2021/09/27 11:48:03;;;;;;;2.45;0.50;;;16.50;64.40;;;;;;5026696;28;20053;-61
2021/09/27 11:50:37;;;;;;;5.50;0.60;;;16.70;63.60;;;;;;5024117;28;20136;-61
2021/09/27 11:53:11;;;;;;;10.02;0.70;;;16.80;63.10;;;;;;5026482;28;20539;-61
2021/09/27 11:56:04;;;;;;;1.42;0.40;;;16.60;62.00;;;;;;5022520;28;20132;-61
2021/09/27 11:58:40;;;;;;;5.63;0.63;;;16.60;63.50;;;;;;5023304;28;20064;-61
2021/09/27 12:01:37;;;;;;;1.15;0.75;;;16.60;65.10;;;;;;5025045;28;20041;-62
2021/09/27 12:04:22;;;;;;;3.30;0.77;;;16.60;64.20;;;;;;5023744;28;20089;-62
2021/09/27 12:06:52;;;;;;;6.80;0.90;;;16.60;62.80;;;;;;5025912;28;20674;-62
2021/09/27 12:09:27;;;;;;;6.57;1.95;;;16.60;64.40;;;;;;5024833;28;20049;-62
2021/09/27 12:11:55;;;;;;;3.60;0.65;;;16.60;66.30;;;;;;5025409;28;20045;-61
2021/09/27 12:14:42;;;;;;;3.13;1.02;;;16.60;67.40;;;;;;5026006;28;20037;-61
2021/09/27 12:17:12;;;;;;;2.30;0.73;;;16.60;63.70;;;;;;5024996;28;20420;-61
2021/09/27 12:20:25;;;;;;;4.43;0.98;;;16.60;67.30;;;;;;5024862;28;20157;-61
2021/09/27 12:22:57;;;;;;;4.20;0.80;;;16.70;62.50;;;;;;5026483;28;20500;-61
2021/09/27 12:25:32;;;;;;;3.45;0.50;;;16.70;64.10;;;;;;5026126;28;20135;-61
2021/09/27 12:28:06;;;;;;;2.75;0.70;;;16.70;63.50;;;;;;5026325;28;20894;-60
2021/09/27 12:30:35;;;;;;;2.58;0.70;;;16.90;63.40;;;;;;5024281;28;20123;-61
2021/09/27 12:33:08;;;;;;;4.88;1.95;;;16.90;65.20;;;;;;5025496;28;20149;-62
2021/09/27 12:35:40;;;;;;;5.32;0.60;;;17.10;64.10;;;;;;5024917;28;20089;-62
2021/09/27 12:38:07;;;;;;;2.80;1.55;;;17.00;63.60;;;;;;5025848;28;20057;-61
2021/09/27 12:40:40;;;;;;;6.22;0.95;;;17.10;65.00;;;;;;5025816;28;20239;-61
2021/09/27 12:43:14;;;;;;;4.75;0.60;;;17.10;61.70;;;;;;5024582;28;20045;-61
2021/09/27 12:45:46;;;;;;;4.35;0.70;;;17.10;63.20;;;;;;5025984;28;20042;-62
2021/09/27 12:48:21;;;;;;;1.60;0.50;;;17.00;63.20;;;;;;5024257;28;20042;-61
2021/09/27 12:50:54;;;;;;;1.38;0.50;;;17.00;62.60;;;;;;5024783;28;20049;-61
2021/09/27 12:53:25;;;;;;;6.68;0.82;;;16.90;62.20;;;;;;5035440;28;20481;-61
2021/09/27 12:55:53;;;;;;;1.38;0.57;;;16.90;63.80;;;;;;5024703;28;20080;-62
2021/09/27 12:58:38;;;;;;;2.35;1.00;;;16.80;64.00;;;;;;5022421;28;20041;-61
2021/09/27 13:01:08;;;;;;;3.03;0.52;;;16.80;63.00;;;;;;5022596;28;20045;-61
2021/09/27 13:03:35;;;;;;;3.30;0.70;;;16.80;66.00;;;;;;5009037;28;20088;-61
2021/09/27 13:06:09;;;;;;;1.02;0.60;;;16.90;65.50;;;;;;5024462;28;20111;-61
2021/09/27 13:08:48;;;;;;;2.92;0.52;;;16.90;62.50;;;;;;5020612;28;20073;-61
2021/09/27 13:11:27;;;;;;;2.47;0.70;;;16.80;63.30;;;;;;5023618;28;20570;-62
2021/09/27 13:14:14;;;;;;;8.80;0.98;;;17.00;63.80;;;;;;5026151;28;20119;-61
2021/09/27 13:16:41;;;;;;;1.42;0.50;;;17.10;63.90;;;;;;5018813;28;20472;-60
2021/09/27 13:19:10;;;;;;;1.98;0.65;;;17.20;64.00;;;;;;5029086;28;20061;-61
2021/09/27 13:21:43;;;;;;;4.28;0.35;;;17.40;64.70;;;;;;5029222;28;20136;-60
2021/09/27 13:24:18;;;;;;;1.75;0.50;;;17.50;57.90;;;;;;5029849;28;20495;-61
2021/09/27 13:27:01;;;;;;;3.85;0.55;;;17.60;59.00;;;;;;5028655;28;20484;-61
2021/09/27 13:29:31;;;;;;;0.55;0.40;;;17.60;57.90;;;;;;5028991;28;20089;-61
2021/09/27 13:32:01;;;;;;;1.27;0.60;;;17.60;59.50;;;;;;5029211;28;20110;-62